Detall de PIREP

Printer-friendly versionPDF version

[2012/10/02 10:59:00]
Flight IATA:CT3232
Pilot Number:012
Company ICAO:CAT
Aircraft Type:A343/E
PAX:155
Departing Airport: LEPA
Destination Airport: LEMD
Alternate Airport:LEMG
Online: VATSIM
Route:EPAMA UN733 PRADO
Flight Level:F330
No Slew and time accel
No pause
Crash detect
Detect pilot in Cockpit between each 30 and 45 minutes
10:59 Zero fuel Weight: 313530 Lbs, Fuel Weight: 45950 Lbs
10:59 VATSIM:LEPA 021030Z 22010KT 190V250 9999 FEW020 24/19 Q1022 NOSIG
10:59 VATSIM:LEMD 021030Z 18003KT 130V280 CAVOK 18/10 Q1024 NOSIG
10:59 VOICE CATALONIAN
11:05 Parking Brakes off
11:09 Take-off
11:09 Take off Weight: 358122 Lbs
11:09 Wind: 223º @ 010 Knots Heading: 238º
11:09 POS N39º 33´ 23´´ E002º 43´ 48´´
11:09 Flaps:2 at 197 Knots
11:09 Gear Up: 204 Knots
11:09 Flaps:1 at 214 Knots
11:10 Flaps:0 at 237 Knots
11:15 TOC
11:15 Fuel Weight: 40866 Lb
11:24 Wind:296º@046 Knots Heading: 268º Ground Speed: 440 Knots Altitude 33244 ft
11:34 TOD
11:34 Fuel Weight: 37947 Lb
11:39 Wind:284º@032 Knots Heading: 298º Ground Speed: 358 Knots Altitude 25583 ft
11:54 Wind:254º@004 Knots Heading: 269º Ground Speed: 245 Knots Altitude 7490 ft
11:58 Flaps:1 at 211 Knots
11:58 Flaps:3 at 210 Knots
12:00 Gear Down: 135 Knots
12:01 Flaps:4 at 135 Knots
12:02 Flaps:5 at 136 Knots
12:04 TouchDown:Rate -259 ft/min Speed: 120 Knots
12:05 VATSIM:LEMD 021130Z 35002KT CAVOK 20/09 Q1023 NOSIG
12:05 Land
12:05 Wind:000º@002 Knots
12:05 Heading: 320º
12:05 Flight Duration: 00:56
12:05 Landing Weight: 348554 Lbs
12:05 POS N40º 29´ 02´´ W003º 32´ 47´´
12:06 Parking brakes on
12:06 Block to Block Duration: 01:01
12:06 Final Fuel: 34817 Lbls
12:06 Spent Fuel: 11133 Lbls
12:06 Flight Length: 309 NM
12:06 TOD Land Length: 136 NM

Exportar CSV

Powered by Drupal - Modified by Danger4k